sensor_id;sensor_type;location;lat;lon;timestamp;temperature;humidity
22130;DHT22;11231;50.746;4.272;2023-06-10T00:00:56;23.30;99.90
22130;DHT22;11231;50.746;4.272;2023-06-10T00:03:22;23.30;99.90
22130;DHT22;11231;50.746;4.272;2023-06-10T00:05:54;23.30;99.90
22130;DHT22;11231;50.746;4.272;2023-06-10T00:08:20;23.10;99.90
22130;DHT22;11231;50.746;4.272;2023-06-10T00:10:46;23.10;99.90
22130;DHT22;11231;50.746;4.272;2023-06-10T00:13:12;23.00;99.90
22130;DHT22;11231;50.746;4.272;2023-06-10T00:15:38;23.00;99.90
22130;DHT22;11231;50.746;4.272;2023-06-10T00:18:04;22.90;99.90
22130;DHT22;11231;50.746;4.272;2023-06-10T00:20:30;22.90;99.90
22130;DHT22;11231;50.746;4.272;2023-06-10T00:22:58;22.80;99.90
22130;DHT22;11231;50.746;4.272;2023-06-10T00:25:26;22.80;99.90
22130;DHT22;11231;50.746;4.272;2023-06-10T00:27:52;22.80;99.90
22130;DHT22;11231;50.746;4.272;2023-06-10T00:30:18;22.80;99.90
22130;DHT22;11231;50.746;4.272;2023-06-10T00:32:44;22.80;99.90
22130;DHT22;11231;50.746;4.272;2023-06-10T00:35:09;22.70;99.90
22130;DHT22;11231;50.746;4.272;2023-06-10T00:37:35;22.70;99.90
22130;DHT22;11231;50.746;4.272;2023-06-10T00:40:05;22.70;99.90
22130;DHT22;11231;50.746;4.272;2023-06-10T00:42:31;22.60;99.90
22130;DHT22;11231;50.746;4.272;2023-06-10T00:44:57;22.60;99.90
22130;DHT22;11231;50.746;4.272;2023-06-10T00:47:23;22.60;99.90
22130;DHT22;11231;50.746;4.272;2023-06-10T00:49:50;22.60;99.90
22130;DHT22;11231;50.746;4.272;2023-06-10T00:52:16;22.50;99.90
22130;DHT22;11231;50.746;4.272;2023-06-10T00:54:44;22.50;99.90
22130;DHT22;11231;50.746;4.272;2023-06-10T00:57:10;22.50;99.90
22130;DHT22;11231;50.746;4.272;2023-06-10T00:59:39;22.50;99.90
22130;DHT22;11231;50.746;4.272;2023-06-10T01:02:06;22.50;99.90
22130;DHT22;11231;50.746;4.272;2023-06-10T01:04:33;22.50;99.90
22130;DHT22;11231;50.746;4.272;2023-06-10T01:07:05;22.30;99.90
22130;DHT22;11231;50.746;4.272;2023-06-10T01:09:49;22.30;99.90
22130;DHT22;11231;50.746;4.272;2023-06-10T01:14:54;22.30;99.90
22130;DHT22;11231;50.746;4.272;2023-06-10T01:17:20;22.30;99.90
22130;DHT22;11231;50.746;4.272;2023-06-10T01:19:57;22.30;99.90
22130;DHT22;11231;50.746;4.272;2023-06-10T01:22:24;22.40;99.90
22130;DHT22;11231;50.746;4.272;2023-06-10T01:24:52;22.30;99.90
22130;DHT22;11231;50.746;4.272;2023-06-10T01:27:19;22.30;99.90
22130;DHT22;11231;50.746;4.272;2023-06-10T01:29:52;22.20;99.90
22130;DHT22;11231;50.746;4.272;2023-06-10T01:32:32;22.20;99.90
22130;DHT22;11231;50.746;4.272;2023-06-10T01:34:59;22.20;99.90
22130;DHT22;11231;50.746;4.272;2023-06-10T01:37:26;22.20;99.90
22130;DHT22;11231;50.746;4.272;2023-06-10T01:39:55;22.20;99.90
22130;DHT22;11231;50.746;4.272;2023-06-10T01:42:23;22.20;99.90
22130;DHT22;11231;50.746;4.272;2023-06-10T01:44:50;22.10;99.90
22130;DHT22;11231;50.746;4.272;2023-06-10T01:47:15;22.10;99.90
22130;DHT22;11231;50.746;4.272;2023-06-10T01:49:42;22.00;99.90
22130;DHT22;11231;50.746;4.272;2023-06-10T01:52:08;22.10;99.90
22130;DHT22;11231;50.746;4.272;2023-06-10T01:54:33;22.00;99.90
22130;DHT22;11231;50.746;4.272;2023-06-10T01:57:02;22.00;99.90
22130;DHT22;11231;50.746;4.272;2023-06-10T01:59:28;22.00;99.90
22130;DHT22;11231;50.746;4.272;2023-06-10T02:01:53;21.90;99.90
22130;DHT22;11231;50.746;4.272;2023-06-10T02:04:19;21.90;99.90
22130;DHT22;11231;50.746;4.272;2023-06-10T02:06:45;21.90;99.90
22130;DHT22;11231;50.746;4.272;2023-06-10T02:09:11;21.90;99.90
22130;DHT22;11231;50.746;4.272;2023-06-10T02:11:36;22.00;99.90
22130;DHT22;11231;50.746;4.272;2023-06-10T02:14:02;21.90;99.90
22130;DHT22;11231;50.746;4.272;2023-06-10T02:16:28;21.90;99.90
22130;DHT22;11231;50.746;4.272;2023-06-10T02:18:54;21.80;99.90
22130;DHT22;11231;50.746;4.272;2023-06-10T02:21:20;21.80;99.90
22130;DHT22;11231;50.746;4.272;2023-06-10T02:23:46;21.80;99.90
22130;DHT22;11231;50.746;4.272;2023-06-10T02:26:11;21.80;99.90
22130;DHT22;11231;50.746;4.272;2023-06-10T02:28:37;21.70;99.90
22130;DHT22;11231;50.746;4.272;2023-06-10T02:31:03;21.70;99.90
22130;DHT22;11231;50.746;4.272;2023-06-10T02:33:28;21.70;99.90
22130;DHT22;11231;50.746;4.272;2023-06-10T02:35:55;21.70;99.90
22130;DHT22;11231;50.746;4.272;2023-06-10T02:38:22;21.70;99.90
22130;DHT22;11231;50.746;4.272;2023-06-10T02:40:48;21.60;99.90
22130;DHT22;11231;50.746;4.272;2023-06-10T02:43:13;21.50;99.90
22130;DHT22;11231;50.746;4.272;2023-06-10T02:45:40;21.50;99.90
22130;DHT22;11231;50.746;4.272;2023-06-10T02:48:07;21.60;99.90
22130;DHT22;11231;50.746;4.272;2023-06-10T02:50:33;21.60;99.90
22130;DHT22;11231;50.746;4.272;2023-06-10T02:53:07;21.50;99.90
22130;DHT22;11231;50.746;4.272;2023-06-10T02:55:36;21.50;99.90
22130;DHT22;11231;50.746;4.272;2023-06-10T02:58:07;21.60;99.90
22130;DHT22;11231;50.746;4.272;2023-06-10T03:00:33;21.50;99.90
22130;DHT22;11231;50.746;4.272;2023-06-10T03:02:59;21.40;99.90
22130;DHT22;11231;50.746;4.272;2023-06-10T03:05:32;21.40;99.90
22130;DHT22;11231;50.746;4.272;2023-06-10T03:08:00;21.30;99.90
22130;DHT22;11231;50.746;4.272;2023-06-10T03:10:27;21.20;99.90
22130;DHT22;11231;50.746;4.272;2023-06-10T03:12:52;21.10;99.90
22130;DHT22;11231;50.746;4.272;2023-06-10T03:15:19;21.10;99.90
22130;DHT22;11231;50.746;4.272;2023-06-10T03:17:47;21.10;99.90
22130;DHT22;11231;50.746;4.272;2023-06-10T03:20:13;21.20;99.90
22130;DHT22;11231;50.746;4.272;2023-06-10T03:22:45;21.20;99.90
22130;DHT22;11231;50.746;4.272;2023-06-10T03:25:10;21.20;99.90
22130;DHT22;11231;50.746;4.272;2023-06-10T03:27:42;21.10;99.90
22130;DHT22;11231;50.746;4.272;2023-06-10T03:30:08;21.00;99.90
22130;DHT22;11231;50.746;4.272;2023-06-10T03:32:34;21.00;99.90
22130;DHT22;11231;50.746;4.272;2023-06-10T03:35:01;20.90;99.90
22130;DHT22;11231;50.746;4.272;2023-06-10T03:37:29;20.90;99.90
22130;DHT22;11231;50.746;4.272;2023-06-10T03:39:55;21.00;99.90
22130;DHT22;11231;50.746;4.272;2023-06-10T03:42:21;20.90;99.90
22130;DHT22;11231;50.746;4.272;2023-06-10T03:44:47;21.00;99.90
22130;DHT22;11231;50.746;4.272;2023-06-10T03:47:12;21.00;99.90
22130;DHT22;11231;50.746;4.272;2023-06-10T03:49:38;21.00;99.90
22130;DHT22;11231;50.746;4.272;2023-06-10T03:52:07;20.90;99.90
22130;DHT22;11231;50.746;4.272;2023-06-10T03:54:32;20.90;99.90
22130;DHT22;11231;50.746;4.272;2023-06-10T03:57:01;20.90;99.90
22130;DHT22;11231;50.746;4.272;2023-06-10T03:59:26;21.00;99.90
22130;DHT22;11231;50.746;4.272;2023-06-10T04:01:52;21.00;99.90
22130;DHT22;11231;50.746;4.272;2023-06-10T04:04:18;21.00;99.90
22130;DHT22;11231;50.746;4.272;2023-06-10T04:06:44;21.00;99.90
22130;DHT22;11231;50.746;4.272;2023-06-10T04:09:11;21.00;99.90
22130;DHT22;11231;50.746;4.272;2023-06-10T04:11:37;21.10;99.90
22130;DHT22;11231;50.746;4.272;2023-06-10T04:14:03;21.10;99.90
22130;DHT22;11231;50.746;4.272;2023-06-10T04:16:29;21.10;99.90
22130;DHT22;11231;50.746;4.272;2023-06-10T04:18:55;21.20;99.90
22130;DHT22;11231;50.746;4.272;2023-06-10T04:21:22;21.30;99.90
22130;DHT22;11231;50.746;4.272;2023-06-10T04:23:48;21.30;99.90
22130;DHT22;11231;50.746;4.272;2023-06-10T04:26:14;21.30;99.90
22130;DHT22;11231;50.746;4.272;2023-06-10T04:28:46;21.50;99.90
22130;DHT22;11231;50.746;4.272;2023-06-10T04:31:13;21.70;99.90
22130;DHT22;11231;50.746;4.272;2023-06-10T04:33:40;22.10;99.90
22130;DHT22;11231;50.746;4.272;2023-06-10T04:36:06;22.70;99.90
22130;DHT22;11231;50.746;4.272;2023-06-10T04:38:32;23.50;99.90
22130;DHT22;11231;50.746;4.272;2023-06-10T04:40:59;23.80;99.90
22130;DHT22;11231;50.746;4.272;2023-06-10T04:43:27;24.40;99.90
22130;DHT22;11231;50.746;4.272;2023-06-10T04:45:55;24.80;99.90
22130;DHT22;11231;50.746;4.272;2023-06-10T04:48:21;25.00;99.90
22130;DHT22;11231;50.746;4.272;2023-06-10T04:50:49;25.80;99.90
22130;DHT22;11231;50.746;4.272;2023-06-10T04:53:16;26.30;99.90
22130;DHT22;11231;50.746;4.272;2023-06-10T04:55:45;26.70;99.90
22130;DHT22;11231;50.746;4.272;2023-06-10T04:58:12;26.90;99.90
22130;DHT22;11231;50.746;4.272;2023-06-10T05:00:37;27.50;99.90
22130;DHT22;11231;50.746;4.272;2023-06-10T05:03:03;27.70;99.90
22130;DHT22;11231;50.746;4.272;2023-06-10T05:05:29;28.40;99.90
22130;DHT22;11231;50.746;4.272;2023-06-10T05:07:55;28.90;99.90
22130;DHT22;11231;50.746;4.272;2023-06-10T05:10:21;29.30;99.90
22130;DHT22;11231;50.746;4.272;2023-06-10T05:12:46;29.70;99.90
22130;DHT22;11231;50.746;4.272;2023-06-10T05:15:12;30.00;99.90
22130;DHT22;11231;50.746;4.272;2023-06-10T05:17:38;30.10;99.40
22130;DHT22;11231;50.746;4.272;2023-06-10T05:20:04;30.00;98.50
22130;DHT22;11231;50.746;4.272;2023-06-10T05:22:30;30.50;98.00
22130;DHT22;11231;50.746;4.272;2023-06-10T05:24:56;30.10;97.40
22130;DHT22;11231;50.746;4.272;2023-06-10T05:27:22;30.40;97.10
22130;DHT22;11231;50.746;4.272;2023-06-10T05:29:48;30.90;96.00
22130;DHT22;11231;50.746;4.272;2023-06-10T05:32:13;30.90;95.30
22130;DHT22;11231;50.746;4.272;2023-06-10T05:34:39;31.20;94.70
22130;DHT22;11231;50.746;4.272;2023-06-10T05:37:05;31.90;93.10
22130;DHT22;11231;50.746;4.272;2023-06-10T05:39:31;32.30;92.40
22130;DHT22;11231;50.746;4.272;2023-06-10T05:41:57;32.50;91.50
22130;DHT22;11231;50.746;4.272;2023-06-10T05:44:24;32.30;90.00
22130;DHT22;11231;50.746;4.272;2023-06-10T05:46:51;31.30;91.00
22130;DHT22;11231;50.746;4.272;2023-06-10T05:49:16;30.90;92.00
22130;DHT22;11231;50.746;4.272;2023-06-10T05:51:42;30.70;91.90
22130;DHT22;11231;50.746;4.272;2023-06-10T05:54:08;30.80;92.10
22130;DHT22;11231;50.746;4.272;2023-06-10T05:56:33;30.70;92.00
22130;DHT22;11231;50.746;4.272;2023-06-10T05:58:59;31.30;91.90
22130;DHT22;11231;50.746;4.272;2023-06-10T06:01:25;32.10;91.00
22130;DHT22;11231;50.746;4.272;2023-06-10T06:03:51;31.90;90.00
22130;DHT22;11231;50.746;4.272;2023-06-10T06:06:16;32.10;90.00
22130;DHT22;11231;50.746;4.272;2023-06-10T06:08:42;32.40;90.10
22130;DHT22;11231;50.746;4.272;2023-06-10T06:11:08;32.40;88.70
22130;DHT22;11231;50.746;4.272;2023-06-10T06:13:33;31.80;88.20
22130;DHT22;11231;50.746;4.272;2023-06-10T06:15:59;32.00;87.60
22130;DHT22;11231;50.746;4.272;2023-06-10T06:18:25;32.00;88.20
22130;DHT22;11231;50.746;4.272;2023-06-10T06:20:51;31.80;86.80
22130;DHT22;11231;50.746;4.272;2023-06-10T06:23:16;32.40;86.90
22130;DHT22;11231;50.746;4.272;2023-06-10T06:25:42;32.70;86.20
22130;DHT22;11231;50.746;4.272;2023-06-10T06:28:09;32.90;84.90
22130;DHT22;11231;50.746;4.272;2023-06-10T06:30:35;33.10;84.20
22130;DHT22;11231;50.746;4.272;2023-06-10T06:33:01;33.60;82.60
22130;DHT22;11231;50.746;4.272;2023-06-10T06:35:27;33.40;82.30
22130;DHT22;11231;50.746;4.272;2023-06-10T06:37:53;33.50;82.00
22130;DHT22;11231;50.746;4.272;2023-06-10T06:40:24;33.90;81.10
22130;DHT22;11231;50.746;4.272;2023-06-10T06:42:50;33.90;81.20
22130;DHT22;11231;50.746;4.272;2023-06-10T06:45:36;34.20;79.60
22130;DHT22;11231;50.746;4.272;2023-06-10T06:48:02;33.80;79.30
22130;DHT22;11231;50.746;4.272;2023-06-10T06:50:28;33.70;79.80
22130;DHT22;11231;50.746;4.272;2023-06-10T06:52:53;33.30;78.90
22130;DHT22;11231;50.746;4.272;2023-06-10T06:55:19;32.80;79.50
22130;DHT22;11231;50.746;4.272;2023-06-10T06:57:45;32.60;81.00
22130;DHT22;11231;50.746;4.272;2023-06-10T07:00:12;33.30;79.80
22130;DHT22;11231;50.746;4.272;2023-06-10T07:02:37;33.70;78.70
22130;DHT22;11231;50.746;4.272;2023-06-10T07:05:03;33.80;78.30
22130;DHT22;11231;50.746;4.272;2023-06-10T07:07:29;33.90;78.10
22130;DHT22;11231;50.746;4.272;2023-06-10T07:09:55;33.50;77.90
22130;DHT22;11231;50.746;4.272;2023-06-10T07:12:21;33.80;77.70
22130;DHT22;11231;50.746;4.272;2023-06-10T07:14:50;34.30;77.50
22130;DHT22;11231;50.746;4.272;2023-06-10T07:17:17;35.10;75.10
22130;DHT22;11231;50.746;4.272;2023-06-10T07:19:44;35.30;74.50
22130;DHT22;11231;50.746;4.272;2023-06-10T07:22:13;35.20;74.50
22130;DHT22;11231;50.746;4.272;2023-06-10T07:24:45;35.30;71.60
22130;DHT22;11231;50.746;4.272;2023-06-10T07:27:11;34.90;73.60
22130;DHT22;11231;50.746;4.272;2023-06-10T07:29:37;35.80;74.80
22130;DHT22;11231;50.746;4.272;2023-06-10T07:32:03;36.90;72.10
22130;DHT22;11231;50.746;4.272;2023-06-10T07:34:29;36.40;67.30
22130;DHT22;11231;50.746;4.272;2023-06-10T07:36:55;36.40;69.40
22130;DHT22;11231;50.746;4.272;2023-06-10T07:39:21;36.70;68.80
22130;DHT22;11231;50.746;4.272;2023-06-10T07:41:46;36.50;67.40
22130;DHT22;11231;50.746;4.272;2023-06-10T07:44:14;35.40;67.50
22130;DHT22;11231;50.746;4.272;2023-06-10T07:46:40;35.20;69.30
22130;DHT22;11231;50.746;4.272;2023-06-10T07:49:05;35.60;67.00
22130;DHT22;11231;50.746;4.272;2023-06-10T07:51:31;35.10;69.00
22130;DHT22;11231;50.746;4.272;2023-06-10T07:53:57;35.10;69.00
22130;DHT22;11231;50.746;4.272;2023-06-10T07:56:23;35.20;68.70
22130;DHT22;11231;50.746;4.272;2023-06-10T07:58:49;35.60;68.10
22130;DHT22;11231;50.746;4.272;2023-06-10T08:01:14;35.80;67.90
22130;DHT22;11231;50.746;4.272;2023-06-10T08:03:40;37.70;67.90
22130;DHT22;11231;50.746;4.272;2023-06-10T08:06:06;39.30;63.40
22130;DHT22;11231;50.746;4.272;2023-06-10T08:08:31;39.60;62.50
22130;DHT22;11231;50.746;4.272;2023-06-10T08:10:57;39.60;60.00
22130;DHT22;11231;50.746;4.272;2023-06-10T08:13:23;38.20;61.30
22130;DHT22;11231;50.746;4.272;2023-06-10T08:15:48;38.20;62.80
22130;DHT22;11231;50.746;4.272;2023-06-10T08:18:16;37.80;62.10
22130;DHT22;11231;50.746;4.272;2023-06-10T08:20:42;37.80;61.70
22130;DHT22;11231;50.746;4.272;2023-06-10T08:23:07;38.60;61.30
22130;DHT22;11231;50.746;4.272;2023-06-10T08:25:33;37.80;58.80
22130;DHT22;11231;50.746;4.272;2023-06-10T08:27:59;37.20;60.20
22130;DHT22;11231;50.746;4.272;2023-06-10T08:30:25;36.80;60.70
22130;DHT22;11231;50.746;4.272;2023-06-10T08:32:50;37.00;62.20
22130;DHT22;11231;50.746;4.272;2023-06-10T08:35:17;37.30;60.50
22130;DHT22;11231;50.746;4.272;2023-06-10T08:37:43;37.70;61.40
22130;DHT22;11231;50.746;4.272;2023-06-10T08:40:09;37.60;61.40
22130;DHT22;11231;50.746;4.272;2023-06-10T08:42:49;37.40;59.70
22130;DHT22;11231;50.746;4.272;2023-06-10T08:45:20;37.30;61.40
22130;DHT22;11231;50.746;4.272;2023-06-10T08:47:50;38.50;59.90
22130;DHT22;11231;50.746;4.272;2023-06-10T08:50:19;38.10;58.90
22130;DHT22;11231;50.746;4.272;2023-06-10T08:52:48;38.00;60.30
22130;DHT22;11231;50.746;4.272;2023-06-10T08:55:21;39.00;58.70
22130;DHT22;11231;50.746;4.272;2023-06-10T08:57:51;39.60;57.90
22130;DHT22;11231;50.746;4.272;2023-06-10T09:00:18;39.20;57.90
22130;DHT22;11231;50.746;4.272;2023-06-10T09:02:44;39.30;57.60
22130;DHT22;11231;50.746;4.272;2023-06-10T09:05:10;38.60;57.80
22130;DHT22;11231;50.746;4.272;2023-06-10T09:07:36;38.40;58.10
22130;DHT22;11231;50.746;4.272;2023-06-10T09:10:03;38.40;58.10
22130;DHT22;11231;50.746;4.272;2023-06-10T09:12:35;38.20;58.30
22130;DHT22;11231;50.746;4.272;2023-06-10T09:15:01;38.20;57.90
22130;DHT22;11231;50.746;4.272;2023-06-10T09:17:28;39.80;58.10
22130;DHT22;11231;50.746;4.272;2023-06-10T09:19:54;39.70;56.00
22130;DHT22;11231;50.746;4.272;2023-06-10T09:22:22;38.10;57.60
22130;DHT22;11231;50.746;4.272;2023-06-10T09:24:48;37.60;58.90
22130;DHT22;11231;50.746;4.272;2023-06-10T09:27:14;38.10;58.20
22130;DHT22;11231;50.746;4.272;2023-06-10T09:29:55;38.40;57.90
22130;DHT22;11231;50.746;4.272;2023-06-10T09:32:24;38.90;57.60
22130;DHT22;11231;50.746;4.272;2023-06-10T09:34:49;39.60;55.70
22130;DHT22;11231;50.746;4.272;2023-06-10T09:37:25;38.80;55.80
22130;DHT22;11231;50.746;4.272;2023-06-10T09:40:07;38.90;55.90
22130;DHT22;11231;50.746;4.272;2023-06-10T09:42:35;39.10;56.30
22130;DHT22;11231;50.746;4.272;2023-06-10T09:45:06;39.80;56.50
22130;DHT22;11231;50.746;4.272;2023-06-10T09:47:33;40.80;53.80
22130;DHT22;11231;50.746;4.272;2023-06-10T09:49:59;39.80;54.20
22130;DHT22;11231;50.746;4.272;2023-06-10T09:52:28;39.00;55.90
22130;DHT22;11231;50.746;4.272;2023-06-10T09:55:00;38.90;55.40
22130;DHT22;11231;50.746;4.272;2023-06-10T09:57:30;40.00;56.20
22130;DHT22;11231;50.746;4.272;2023-06-10T09:59:58;39.60;53.80
22130;DHT22;11231;50.746;4.272;2023-06-10T10:02:23;38.50;53.90
22130;DHT22;11231;50.746;4.272;2023-06-10T10:04:49;37.50;53.90
22130;DHT22;11231;50.746;4.272;2023-06-10T10:07:15;37.10;55.50
22130;DHT22;11231;50.746;4.272;2023-06-10T10:09:42;37.00;55.50
22130;DHT22;11231;50.746;4.272;2023-06-10T10:12:11;36.90;54.50
22130;DHT22;11231;50.746;4.272;2023-06-10T10:14:37;37.40;54.60
22130;DHT22;11231;50.746;4.272;2023-06-10T10:17:11;38.00;56.00
22130;DHT22;11231;50.746;4.272;2023-06-10T10:20:02;39.50;54.90
22130;DHT22;11231;50.746;4.272;2023-06-10T10:22:26;40.80;52.90
22130;DHT22;11231;50.746;4.272;2023-06-10T10:25:01;41.90;51.50
22130;DHT22;11231;50.746;4.272;2023-06-10T10:27:31;41.90;50.60
22130;DHT22;11231;50.746;4.272;2023-06-10T10:29:58;40.30;51.50
22130;DHT22;11231;50.746;4.272;2023-06-10T10:35:16;39.00;51.20
22130;DHT22;11231;50.746;4.272;2023-06-10T10:37:43;38.30;51.10
22130;DHT22;11231;50.746;4.272;2023-06-10T10:40:10;37.80;52.80
22130;DHT22;11231;50.746;4.272;2023-06-10T10:42:37;38.80;53.60
22130;DHT22;11231;50.746;4.272;2023-06-10T10:45:04;39.20;51.60
22130;DHT22;11231;50.746;4.272;2023-06-10T10:47:30;38.90;51.20
22130;DHT22;11231;50.746;4.272;2023-06-10T10:49:56;38.80;51.70
22130;DHT22;11231;50.746;4.272;2023-06-10T10:52:26;38.50;50.70
22130;DHT22;11231;50.746;4.272;2023-06-10T10:54:53;37.90;52.20
22130;DHT22;11231;50.746;4.272;2023-06-10T10:57:24;37.60;52.70
22130;DHT22;11231;50.746;4.272;2023-06-10T10:59:56;37.00;51.90
22130;DHT22;11231;50.746;4.272;2023-06-10T11:02:42;36.20;51.70
22130;DHT22;11231;50.746;4.272;2023-06-10T11:05:15;36.00;52.90
22130;DHT22;11231;50.746;4.272;2023-06-10T11:07:52;36.30;52.70
22130;DHT22;11231;50.746;4.272;2023-06-10T11:10:30;36.80;52.70
22130;DHT22;11231;50.746;4.272;2023-06-10T11:12:57;36.00;53.10
22130;DHT22;11231;50.746;4.272;2023-06-10T11:15:29;36.30;52.80
22130;DHT22;11231;50.746;4.272;2023-06-10T11:18:24;35.40;52.40
22130;DHT22;11231;50.746;4.272;2023-06-10T11:21:03;35.20;52.60
22130;DHT22;11231;50.746;4.272;2023-06-10T11:23:32;35.40;53.80
22130;DHT22;11231;50.746;4.272;2023-06-10T11:31:25;38.60;51.60
22130;DHT22;11231;50.746;4.272;2023-06-10T11:33:59;38.60;52.60
22130;DHT22;11231;50.746;4.272;2023-06-10T11:36:26;37.60;52.70
22130;DHT22;11231;50.746;4.272;2023-06-10T11:39:04;36.60;53.40
22130;DHT22;11231;50.746;4.272;2023-06-10T11:41:30;36.30;53.00
22130;DHT22;11231;50.746;4.272;2023-06-10T11:44:22;36.70;53.30
22130;DHT22;11231;50.746;4.272;2023-06-10T11:46:52;37.50;51.10
22130;DHT22;11231;50.746;4.272;2023-06-10T11:49:20;37.50;53.20
22130;DHT22;11231;50.746;4.272;2023-06-10T11:51:46;37.40;52.20
22130;DHT22;11231;50.746;4.272;2023-06-10T11:54:15;37.30;52.20
22130;DHT22;11231;50.746;4.272;2023-06-10T11:56:41;37.30;52.80
22130;DHT22;11231;50.746;4.272;2023-06-10T11:59:07;37.20;52.70
22130;DHT22;11231;50.746;4.272;2023-06-10T12:01:34;37.00;53.80
22130;DHT22;11231;50.746;4.272;2023-06-10T12:04:11;36.60;52.50
22130;DHT22;11231;50.746;4.272;2023-06-10T12:06:50;35.50;52.60
22130;DHT22;11231;50.746;4.272;2023-06-10T12:11:50;34.10;54.60
22130;DHT22;11231;50.746;4.272;2023-06-10T12:14:16;33.80;54.60
22130;DHT22;11231;50.746;4.272;2023-06-10T12:17:02;33.50;55.50
22130;DHT22;11231;50.746;4.272;2023-06-10T12:19:28;33.20;56.20
22130;DHT22;11231;50.746;4.272;2023-06-10T12:21:57;33.00;56.00
22130;DHT22;11231;50.746;4.272;2023-06-10T12:24:25;32.90;57.30
22130;DHT22;11231;50.746;4.272;2023-06-10T12:26:53;32.80;56.70
22130;DHT22;11231;50.746;4.272;2023-06-10T12:29:23;32.70;56.80
22130;DHT22;11231;50.746;4.272;2023-06-10T12:32:00;32.50;57.20
22130;DHT22;11231;50.746;4.272;2023-06-10T12:34:36;32.40;58.60
22130;DHT22;11231;50.746;4.272;2023-06-10T12:37:04;32.20;58.90
22130;DHT22;11231;50.746;4.272;2023-06-10T12:39:32;32.20;58.40
22130;DHT22;11231;50.746;4.272;2023-06-10T12:41:59;32.40;59.70
22130;DHT22;11231;50.746;4.272;2023-06-10T12:44:32;32.60;58.50
22130;DHT22;11231;50.746;4.272;2023-06-10T12:46:57;32.60;58.50
22130;DHT22;11231;50.746;4.272;2023-06-10T12:49:23;32.50;57.50
22130;DHT22;11231;50.746;4.272;2023-06-10T12:51:49;32.40;59.20
22130;DHT22;11231;50.746;4.272;2023-06-10T12:54:15;32.30;59.20
22130;DHT22;11231;50.746;4.272;2023-06-10T12:56:40;32.40;58.70
22130;DHT22;11231;50.746;4.272;2023-06-10T12:59:06;32.50;59.70
22130;DHT22;11231;50.746;4.272;2023-06-10T13:01:32;32.50;58.60
22130;DHT22;11231;50.746;4.272;2023-06-10T13:03:59;32.60;58.80
22130;DHT22;11231;50.746;4.272;2023-06-10T13:06:25;32.90;58.60
22130;DHT22;11231;50.746;4.272;2023-06-10T13:08:51;32.70;58.70
22130;DHT22;11231;50.746;4.272;2023-06-10T13:11:17;32.30;58.40
22130;DHT22;11231;50.746;4.272;2023-06-10T13:13:43;32.10;58.30
22130;DHT22;11231;50.746;4.272;2023-06-10T13:16:08;32.00;59.20
22130;DHT22;11231;50.746;4.272;2023-06-10T13:18:34;32.00;61.60
22130;DHT22;11231;50.746;4.272;2023-06-10T13:21:06;32.20;59.60
22130;DHT22;11231;50.746;4.272;2023-06-10T13:23:32;32.30;59.60
22130;DHT22;11231;50.746;4.272;2023-06-10T13:25:58;32.40;59.60
22130;DHT22;11231;50.746;4.272;2023-06-10T13:28:23;32.40;60.00
22130;DHT22;11231;50.746;4.272;2023-06-10T13:30:50;32.30;59.70
22130;DHT22;11231;50.746;4.272;2023-06-10T13:33:16;32.00;59.40
22130;DHT22;11231;50.746;4.272;2023-06-10T13:35:41;31.90;61.20
22130;DHT22;11231;50.746;4.272;2023-06-10T13:38:07;31.90;60.10
22130;DHT22;11231;50.746;4.272;2023-06-10T13:40:33;32.10;58.70
22130;DHT22;11231;50.746;4.272;2023-06-10T13:42:59;32.30;60.10
22130;DHT22;11231;50.746;4.272;2023-06-10T13:45:25;32.60;58.90
22130;DHT22;11231;50.746;4.272;2023-06-10T13:47:51;32.80;58.50
22130;DHT22;11231;50.746;4.272;2023-06-10T13:50:16;32.90;58.50
22130;DHT22;11231;50.746;4.272;2023-06-10T13:52:42;32.80;58.60
22130;DHT22;11231;50.746;4.272;2023-06-10T13:55:08;32.60;59.60
22130;DHT22;11231;50.746;4.272;2023-06-10T13:57:34;32.30;59.60
22130;DHT22;11231;50.746;4.272;2023-06-10T14:00:00;31.90;59.50
22130;DHT22;11231;50.746;4.272;2023-06-10T14:02:25;32.00;60.70
22130;DHT22;11231;50.746;4.272;2023-06-10T14:04:51;32.00;59.30
22130;DHT22;11231;50.746;4.272;2023-06-10T14:07:17;32.00;58.70
22130;DHT22;11231;50.746;4.272;2023-06-10T14:09:42;32.00;58.50
22130;DHT22;11231;50.746;4.272;2023-06-10T14:12:09;31.80;59.40
22130;DHT22;11231;50.746;4.272;2023-06-10T14:14:35;31.50;58.20
22130;DHT22;11231;50.746;4.272;2023-06-10T14:17:02;31.40;58.50
22130;DHT22;11231;50.746;4.272;2023-06-10T14:19:28;31.20;59.40
22130;DHT22;11231;50.746;4.272;2023-06-10T14:21:54;31.30;59.30
22130;DHT22;11231;50.746;4.272;2023-06-10T14:24:21;31.30;58.80
22130;DHT22;11231;50.746;4.272;2023-06-10T14:26:47;31.30;58.70
22130;DHT22;11231;50.746;4.272;2023-06-10T14:29:13;31.30;59.80
22130;DHT22;11231;50.746;4.272;2023-06-10T14:31:43;31.40;59.60
22130;DHT22;11231;50.746;4.272;2023-06-10T14:34:09;31.60;59.10
22130;DHT22;11231;50.746;4.272;2023-06-10T14:36:35;31.80;59.30
22130;DHT22;11231;50.746;4.272;2023-06-10T14:39:00;31.90;56.60
22130;DHT22;11231;50.746;4.272;2023-06-10T14:41:26;31.90;58.00
22130;DHT22;11231;50.746;4.272;2023-06-10T14:43:52;31.90;56.90
22130;DHT22;11231;50.746;4.272;2023-06-10T14:46:18;32.00;58.80
22130;DHT22;11231;50.746;4.272;2023-06-10T14:48:46;31.90;58.00
22130;DHT22;11231;50.746;4.272;2023-06-10T14:51:12;32.00;57.80
22130;DHT22;11231;50.746;4.272;2023-06-10T14:53:38;31.90;56.70
22130;DHT22;11231;50.746;4.272;2023-06-10T14:56:04;32.00;57.20
22130;DHT22;11231;50.746;4.272;2023-06-10T14:58:30;32.10;57.10
22130;DHT22;11231;50.746;4.272;2023-06-10T15:00:55;32.10;56.60
22130;DHT22;11231;50.746;4.272;2023-06-10T15:03:21;32.10;56.90
22130;DHT22;11231;50.746;4.272;2023-06-10T15:05:47;32.00;57.80
22130;DHT22;11231;50.746;4.272;2023-06-10T15:08:12;32.00;57.60
22130;DHT22;11231;50.746;4.272;2023-06-10T15:10:38;32.00;58.00
22130;DHT22;11231;50.746;4.272;2023-06-10T15:13:04;31.90;57.50
22130;DHT22;11231;50.746;4.272;2023-06-10T15:15:30;31.90;57.40
22130;DHT22;11231;50.746;4.272;2023-06-10T15:17:56;31.90;57.60
22130;DHT22;11231;50.746;4.272;2023-06-10T15:20:21;31.90;57.40
22130;DHT22;11231;50.746;4.272;2023-06-10T15:22:47;31.90;56.70
22130;DHT22;11231;50.746;4.272;2023-06-10T15:25:13;31.80;58.00
22130;DHT22;11231;50.746;4.272;2023-06-10T15:27:39;31.80;58.30
22130;DHT22;11231;50.746;4.272;2023-06-10T15:30:06;31.70;58.30
22130;DHT22;11231;50.746;4.272;2023-06-10T15:32:31;31.60;58.40
22130;DHT22;11231;50.746;4.272;2023-06-10T15:34:57;31.50;58.20
22130;DHT22;11231;50.746;4.272;2023-06-10T15:37:23;31.60;58.40
22130;DHT22;11231;50.746;4.272;2023-06-10T15:39:48;31.70;60.00
22130;DHT22;11231;50.746;4.272;2023-06-10T15:42:14;31.70;59.40
22130;DHT22;11231;50.746;4.272;2023-06-10T15:44:40;31.70;58.30